Latest Weather Observations for Ballarat

IDV60801

Issued at 11:31 am EST Tuesday 28 April 2015 (issued every 30 minutes, with the page automatically refreshed every 10 minutes)

About weather observations | Map of weather stations | Latest weather observations for VIC | Other Formats
Station Details ID: 089002 Name: BALLARAT AERODROME Lat: -37.51 Lon: 143.79 Height: 435.2 m
Data from the previous 72 hours. | See also: Recent months at Ballarat
Date/Time
EST
Temp
°C
App
Temp
°C
Dew
Point
Rel
Hum
%
Delta-T
°C
Wind Press
QNH
hPa
Press
MSL
hPa
Rain
since 9 am
mm
Dir
 
Spd
km/h
Gust
km/h
Spd
kts
Gust
kts
28/11:30am 10.1 6.4 9.3 95 0.4 S 19 24 10 13 1029.3 1029.1 0.0
28/11:00am 11.1 7.5 9.9 92 0.6 SSE 19 24 10 13 1029.2 1029.0 0.0
28/10:37am 9.1 5.0 8.8 98 0.2 SSE 20 24 11 13 1029.3 1029.1 0.0
28/10:30am 8.8 4.9 8.5 98 0.1 SSE 19 24 10 13 1029.3 1029.1 0.0
28/10:29am 9.0 5.1 8.7 98 0.1 SSE 19 24 10 13 1029.3 1029.1 0.0
28/10:18am 8.9 4.4 8.6 98 0.1 SSE 22 30 12 16 1029.3 1029.1 0.0
28/10:00am 9.5 5.8 9.4 99 0.1 SSE 19 24 10 13 1029.2 1029.0 0.0
28/09:30am 8.3 4.1 8.2 99 0.0 S 20 28 11 15 1029.2 1029.0 0.0
28/09:00am 7.9 3.6 7.8 99 0.0 S 20 28 11 15 1029.2 1029.0 1.0
28/08:30am 7.9 4.9 7.8 99 0.0 S 13 19 7 10 1028.9 1028.7 0.8
28/08:00am 7.6 4.9 7.5 99 0.0 S 11 15 6 8 1028.6 1028.4 0.8
28/07:30am 7.4 3.5 7.3 99 0.0 S 17 20 9 11 1028.3 1028.1 0.8
28/07:00am 7.2 3.3 7.1 99 0.0 S 17 22 9 12 1028.1 1027.8 0.8
28/06:30am 7.2 2.9 7.1 99 0.0 S 19 26 10 14 1027.6 1027.4 0.8
28/06:00am 7.5 4.0 7.4 99 0.0 S 15 20 8 11 1027.3 1027.1 0.8
28/05:30am 7.7 4.7 7.6 99 0.0 S 13 17 7 9 1027.0 1026.8 0.8
28/05:00am 7.8 4.8 7.7 99 0.0 S 13 15 7 8 1026.8 1026.6 0.8
28/04:30am 7.7 4.7 7.6 99 0.0 SSW 13 17 7 9 1026.6 1026.4 0.8
28/04:00am 7.5 4.8 7.4 99 0.0 S 11 15 6 8 1026.3 1026.1 0.8
28/03:30am 7.4 4.3 7.3 99 0.0 S 13 15 7 8 1026.3 1026.1 0.8
28/03:00am 7.4 4.7 7.3 99 0.0 SSW 11 15 6 8 1026.2 1026.0 0.8
28/02:30am 7.6 4.9 7.5 99 0.0 SSW 11 17 6 9 1026.2 1026.0 0.8
28/02:00am 7.5 4.4 7.4 99 0.0 SSW 13 19 7 10 1026.2 1026.0 0.8
28/01:30am 7.4 5.1 7.3 99 0.0 SSW 9 13 5 7 1026.2 1026.0 0.8
28/01:00am 7.5 4.8 7.4 99 0.0 SSW 11 15 6 8 1026.5 1026.3 0.4
28/12:53am 7.5 4.8 7.4 99 0.0 SSW 11 15 6 8 1026.5 1026.3 0.4
28/12:30am 7.7 4.6 7.4 98 0.1 SSW 13 19 7 10 1026.4 1026.2 0.4
28/12:00am 7.7 4.6 7.4 98 0.1 SSW 13 19 7 10 1026.4 1026.2 0.4
 
Date/Time
EST
Temp
°C
App
Temp
°C
Dew
Point
Rel
Hum
%
Delta-T
°C
Wind Press
QNH
hPa
Press
MSL
hPa
Rain
since 9 am
mm
Dir
 
Spd
km/h
Gust
km/h
Spd
kts
Gust
kts
27/11:30pm 7.8 4.8 7.5 98 0.1 SSW 13 17 7 9 1026.4 1026.2 0.4
27/11:15pm 7.8 5.1 7.5 98 0.1 SW 11 15 6 8 1026.4 1026.2 0.4
27/11:00pm 7.9 5.6 7.6 98 0.1 SSW 9 13 5 7 1026.5 1026.3 0.4
27/10:59pm 7.9 5.6 7.6 98 0.1 SSW 9 13 5 7 1026.5 1026.3 0.4
27/10:30pm 8.0 5.4 7.7 98 0.1 SSW 11 15 6 8 1026.5 1026.3 0.4
27/10:00pm 8.0 6.1 7.7 98 0.1 SSW 7 11 4 6 1026.4 1026.2 0.4
27/09:30pm 8.0 5.8 7.7 98 0.1 S 9 13 5 7 1026.2 1026.0 0.4
27/09:00pm 8.1 5.8 7.3 95 0.4 SSW 9 13 5 7 1026.1 1025.8 0.4
27/08:30pm 8.6 5.9 7.5 93 0.5 SSW 11 17 6 9 1025.8 1025.5 0.4
27/08:00pm 8.8 6.1 7.4 91 0.7 SW 11 17 6 9 1025.6 1025.3 0.4
27/07:30pm 9.1 6.9 7.7 91 0.7 SW 9 13 5 7 1025.3 1025.1 0.4
27/07:00pm 9.3 6.7 7.7 90 0.8 SW 11 19 6 10 1025.0 1024.8 0.4
27/06:30pm 9.2 6.5 7.5 89 0.8 SSW 11 15 6 8 1024.8 1024.6 0.4
27/06:00pm 9.6 6.4 7.0 84 1.2 SW 13 19 7 10 1024.5 1024.3 0.4
27/05:30pm 10.0 6.1 7.3 83 1.3 SW 17 24 9 13 1024.2 1024.0 0.4
27/05:00pm 10.2 7.0 6.7 79 1.7 SW 13 19 7 10 1024.1 1023.8 0.4
27/04:30pm 10.7 6.5 5.9 72 2.3 SSW 17 22 9 12 1023.9 1023.6 0.4
27/04:00pm 11.6 7.6 6.7 72 2.4 SSW 17 22 9 12 1023.7 1023.4 0.4
27/03:30pm 11.5 6.9 6.4 71 2.5 SSW 20 30 11 16 1023.6 1023.3 0.4
27/03:00pm 11.5 7.4 6.4 71 2.5 SSW 17 24 9 13 1023.5 1023.2 0.4
27/02:30pm 11.2 7.2 6.5 73 2.3 SW 17 24 9 13 1023.4 1023.1 0.4
27/02:00pm 11.7 8.3 7.8 77 1.9 SSW 15 20 8 11 1023.3 1023.0 0.4
27/01:30pm 10.5 6.4 7.9 84 1.3 SSW 19 26 10 14 1023.3 1023.0 0.4
27/01:00pm 11.2 7.5 8.1 81 1.5 SSW 17 22 9 12 1023.3 1023.0 0.4
27/12:30pm 10.6 7.3 9.7 94 0.5 SSW 17 22 9 12 1023.6 1023.3 0.4
27/12:00pm 9.0 4.5 8.7 98 0.1 SSW 22 33 12 18 1023.9 1023.6 0.4
27/11:50am 10.8 7.5 9.6 92 0.6 SSW 17 28 9 15 1023.8 1023.5 0.4
27/11:33am 9.8 6.5 9.5 98 0.2 SW 17 26 9 14 1024.0 1023.7 0.4
27/11:31am 9.6 6.2 9.3 98 0.2 SW 17 26 9 14 1024.0 1023.7 0.4
27/11:30am 9.7 6.4 9.4 98 0.2 SW 17 26 9 14 1024.1 1023.8 0.4
27/11:14am 9.1 5.6 8.8 98 0.2 SSW 17 22 9 12 1024.1 1023.8 0.2
27/11:13am 9.2 5.7 8.9 98 0.2 SSW 17 22 9 12 1024.1 1023.8 0.2
27/11:00am 10.6 6.6 9.2 91 0.7 SSW 20 26 11 14 1024.0 1023.7 0.0
27/10:37am 9.3 4.9 9.0 98 0.2 SSW 22 30 12 16 1023.9 1023.6 0.0
27/10:30am 9.5 5.2 9.2 98 0.2 SSW 22 33 12 18 1023.9 1023.6 0.0
27/10:25am 9.0 4.9 8.7 98 0.1 SSW 20 28 11 15 1024.0 1023.7 0.0
27/10:13am 8.8 4.7 8.7 99 0.0 SSW 20 33 11 18 1023.9 1023.6 0.0
27/10:08am 8.8 5.3 8.7 99 0.0 SSW 17 26 9 14 1023.9 1023.6 0.0
27/10:00am 8.9 5.8 8.8 99 0.0 SSW 15 24 8 13 1023.8 1023.5 0.0
27/09:52am 9.0 5.5 8.9 99 0.1 SW 17 26 9 14 1023.8 1023.5 0.0
27/09:30am 8.8 4.9 8.7 99 0.0 SSW 19 26 10 14 1023.7 1023.4 0.0
27/09:00am 8.6 5.0 8.5 99 0.0 SSW 17 22 9 12 1023.5 1023.2 2.2
27/08:56am 8.4 4.8 8.3 99 0.0 SSW 17 26 9 14 1023.5 1023.2 2.2
27/08:31am 8.3 5.4 8.2 99 0.0 SW 13 22 7 12 1023.5 1023.2 1.8
27/08:30am 8.3 5.4 8.2 99 0.0 SW 13 22 7 12 1023.4 1023.1 1.8
27/08:00am 8.0 5.0 7.9 99 0.0 SSW 13 19 7 10 1023.3 1023.0 1.8
27/07:30am 7.8 5.2 7.7 99 0.0 SW 11 15 6 8 1022.8 1022.6 1.8
27/07:00am 7.6 4.9 7.5 99 0.0 SW 11 17 6 9 1022.7 1022.5 1.6
27/06:30am 7.6 5.3 7.5 99 0.0 SW 9 15 5 8 1022.5 1022.3 1.4
27/06:00am 7.7 4.7 7.6 99 0.0 SW 13 20 7 11 1022.3 1022.1 1.4
27/05:30am 7.6 4.2 7.5 99 0.0 SW 15 20 8 11 1022.2 1022.0 1.4
27/05:00am 7.6 4.6 7.5 99 0.0 SW 13 20 7 11 1021.9 1021.6 1.4
27/04:30am 7.7 4.3 7.6 99 0.0 SW 15 24 8 13 1021.7 1021.4 1.4
27/04:00am 7.7 4.7 7.6 99 0.0 SW 13 20 7 11 1021.6 1021.3 1.0
27/03:30am 7.7 4.7 7.6 99 0.0 SW 13 20 7 11 1021.6 1021.3 0.8
27/03:00am 7.7 4.3 7.6 99 0.0 WSW 15 20 8 11 1021.5 1021.2 0.8
27/02:30am 7.7 4.7 7.6 99 0.0 SW 13 22 7 12 1021.5 1021.2 0.8
27/02:00am 7.6 4.2 7.5 99 0.0 SW 15 20 8 11 1021.5 1021.2 0.6
27/01:30am 7.6 4.6 7.5 99 0.0 WSW 13 19 7 10 1021.6 1021.3 0.6
27/01:00am 7.7 3.5 7.6 99 0.0 WSW 19 26 10 14 1021.6 1021.3 0.6
27/12:30am 7.8 4.0 7.7 99 0.0 WSW 17 24 9 13 1021.6 1021.3 0.6
27/12:00am 7.6 4.6 7.5 99 0.0 SW 13 17 7 9 1021.8 1021.5 0.6
 
Date/Time
EST
Temp
°C
App
Temp
°C
Dew
Point
Rel
Hum
%
Delta-T
°C
Wind Press
QNH
hPa
Press
MSL
hPa
Rain
since 9 am
mm
Dir
 
Spd
km/h
Gust
km/h
Spd
kts
Gust
kts
26/11:30pm 7.5 5.2 7.4 99 0.0 SW 9 11 5 6 1021.8 1021.5 0.6
26/11:00pm 7.7 5.1 7.6 99 0.0 WSW 11 17 6 9 1022.0 1021.7 0.6
26/10:59pm 7.7 5.1 7.6 99 0.0 WSW 11 17 6 9 1022.0 1021.7 0.6
26/10:52pm 7.7 4.7 7.6 99 0.0 WSW 13 17 7 9 1022.0 1021.7 0.4
26/10:30pm 7.7 4.3 7.6 99 0.0 WSW 15 22 8 12 1022.1 1021.8 0.4
26/10:03pm 7.8 4.0 7.5 98 0.1 WSW 17 20 9 11 1022.0 1021.7 0.4
26/10:00pm 8.0 4.2 7.7 98 0.1 WSW 17 20 9 11 1022.0 1021.7 0.4
26/09:30pm 8.3 5.4 8.0 98 0.1 WSW 13 19 7 10 1022.0 1021.7 0.4
26/09:00pm 8.2 5.2 7.8 97 0.2 WSW 13 17 7 9 1022.0 1021.7 0.4
26/08:42pm 8.3 5.2 7.1 92 0.6 WSW 13 15 7 8 1021.8 1021.5 0.4
26/08:30pm 8.3 5.1 6.8 90 0.7 SW 13 20 7 11 1021.7 1021.4 0.4
26/08:00pm 8.4 4.6 6.0 85 1.1 WSW 15 20 8 11 1021.5 1021.2 0.4
26/07:30pm 8.9 5.5 5.8 81 1.4 SW 13 20 7 11 1021.5 1021.2 0.4
26/07:00pm 8.8 5.4 6.1 83 1.3 SW 13 19 7 10 1021.3 1021.0 0.4
26/06:30pm 8.9 4.8 6.2 83 1.3 SW 17 22 9 12 1021.2 1020.9 0.4
26/06:00pm 8.8 4.7 6.1 83 1.3 SW 17 26 9 14 1021.1 1020.8 0.4
26/05:30pm 9.2 4.9 5.2 76 1.8 SW 17 33 9 18 1020.7 1020.4 0.4
26/05:00pm 9.4 5.2 5.6 77 1.8 SW 17 24 9 13 1020.6 1020.3 0.4
26/04:30pm 9.4 5.2 5.8 78 1.7 SW 17 30 9 16 1020.3 1020.1 0.4
26/04:00pm 9.5 4.4 5.9 78 1.7 SW 22 35 12 19 1020.2 1020.0 0.4
26/03:30pm 9.9 4.2 5.1 72 2.2 SW 24 35 13 19 1019.9 1019.6 0.4
26/03:00pm 10.7 5.2 5.9 72 2.3 SSW 24 35 13 19 1019.7 1019.4 0.4
26/02:30pm 10.9 5.3 7.2 78 1.8 SW 26 41 14 22 1019.4 1019.1 0.4
26/02:00pm 9.7 5.3 8.9 95 0.4 SW 22 32 12 17 1019.3 1019.0 0.4
26/01:30pm 10.5 5.8 7.6 82 1.4 SW 22 37 12 20 1019.2 1018.9 0.4
26/01:00pm 11.8 6.7 7.7 76 2.0 SW 24 32 13 17 1019.1 1018.8 0.4
26/12:30pm 10.5 5.6 7.0 79 1.7 SSW 22 35 12 19 1019.3 1019.0 0.4
26/12:00pm 10.7 5.4 6.6 76 2.0 SW 24 35 13 19 1019.4 1019.1 0.4
26/11:30am 9.8 4.9 7.1 83 1.3 SSW 22 35 12 19 1019.6 1019.3 0.4
26/11:00am 9.5 4.9 8.3 92 0.6 SSW 22 35 12 19 1019.5 1019.2 0.4
26/10:30am 9.1 4.3 8.8 98 0.2 SSW 24 37 13 20 1019.5 1019.2 0.4
26/10:00am 8.7 4.5 8.4 98 0.1 SSW 20 33 11 18 1019.3 1019.0 0.0
26/09:30am 8.5 4.3 8.2 98 0.1 SSW 20 28 11 15 1019.2 1018.9 0.0
26/09:19am 8.0 3.3 7.9 99 0.0 SSW 22 32 12 17 1019.1 1018.8 0.0
26/09:15am 8.1 3.0 7.8 98 0.1 S 24 35 13 19 1019.1 1018.8 0.0
26/09:00am 7.8 3.5 7.7 99 0.0 SSW 20 30 11 16 1019.0 1018.7 3.6
26/08:30am 7.6 2.8 7.3 98 0.1 SSW 22 30 12 16 1018.7 1018.4 3.6
26/08:00am 7.6 2.4 7.3 98 0.1 SSW 24 39 13 21 1018.3 1018.0 3.6
26/07:30am 7.3 2.9 7.2 99 0.0 SSW 20 35 11 19 1017.8 1017.5 3.6
26/07:00am 7.3 3.4 7.0 98 0.1 SSW 17 24 9 13 1017.4 1017.1 3.6
26/06:30am 7.4 2.9 7.1 98 0.1 SSW 20 28 11 15 1017.1 1016.8 3.6
26/06:00am 7.3 3.4 7.2 99 0.0 SSW 17 26 9 14 1016.9 1016.6 3.6
26/05:30am 7.4 2.9 7.1 98 0.1 SSW 20 33 11 18 1016.7 1016.4 3.4
26/05:00am 7.4 3.1 7.1 98 0.1 SSW 19 28 10 15 1016.5 1016.2 3.4
26/04:30am 7.3 2.8 7.0 98 0.1 SSW 20 33 11 18 1016.3 1016.0 3.4
26/04:00am 7.4 3.2 7.3 99 0.0 SSW 19 28 10 15 1016.3 1016.0 3.4
26/03:30am 7.2 3.3 7.1 99 0.0 SSW 17 22 9 12 1016.1 1015.7 3.4
26/03:00am 7.2 3.3 6.9 98 0.1 SSW 17 24 9 13 1016.1 1015.7 3.4
26/02:30am 7.5 3.6 7.2 98 0.1 SSW 17 24 9 13 1016.1 1015.7 3.4
26/02:06am 7.2 3.6 6.9 98 0.1 SSW 15 20 8 11 1016.1 1015.7 3.4
26/02:00am 7.1 3.5 6.8 98 0.1 SSW 15 22 8 12 1016.1 1015.7 3.4
26/01:30am 7.5 3.6 6.9 96 0.3 SSW 17 24 9 13 1015.8 1015.4 3.4
26/01:00am 7.9 3.8 6.2 89 0.8 SSW 17 24 9 13 1015.7 1015.3 3.4
26/12:30am 7.9 3.9 6.7 92 0.6 SSW 17 22 9 12 1015.5 1015.2 3.4
26/12:00am 7.9 3.4 7.1 95 0.4 SSW 20 32 11 17 1015.2 1014.9 3.4
 
Date/Time
EST
Temp
°C
App
Temp
°C
Dew
Point
Rel
Hum
%
Delta-T
°C
Wind Press
QNH
hPa
Press
MSL
hPa
Rain
since 9 am
mm
Dir
 
Spd
km/h
Gust
km/h
Spd
kts
Gust
kts
25/11:30pm 8.3 3.7 6.6 89 0.8 SSW 20 30 11 16 1015.1 1014.8 3.4
25/11:00pm 8.2 3.3 7.0 92 0.6 SSW 22 33 12 18 1015.2 1014.9 3.4
25/10:30pm 8.1 3.0 7.7 97 0.2 SSW 24 35 13 19 1015.1 1014.8 3.4
25/10:00pm 8.2 3.5 7.9 98 0.1 SSW 22 32 12 17 1015.1 1014.8 3.4
25/09:52pm 8.2 3.5 7.9 98 0.1 SSW 22 32 12 17 1015.0 1014.7 3.4
25/09:30pm 8.3 3.3 8.0 98 0.1 SSW 24 33 13 18 1014.8 1014.5 3.4
25/09:00pm 8.5 4.3 8.4 99 0.0 SSW 20 32 11 17 1014.5 1014.2 3.4
25/08:30pm 8.8 4.7 8.7 99 0.0 SSW 20 32 11 17 1014.1 1013.7 3.4
25/08:00pm 9.3 5.5 9.2 99 0.1 SSW 19 30 10 16 1013.8 1013.4 3.4
25/07:30pm 9.6 4.6 9.5 99 0.1 S 26 35 14 19 1013.6 1013.2 3.4
25/07:00pm 10.2 4.9 9.9 98 0.2 S 28 37 15 20 1013.0 1012.7 3.4
25/06:30pm 10.4 4.8 10.2 99 0.1 S 30 41 16 22 1012.3 1012.0 3.4
25/06:22pm 10.5 6.5 10.3 99 0.1 S 22 41 12 22 1012.1 1011.7 3.4
25/06:03pm 10.3 7.9 10.1 99 0.1 S 13 19 7 10 1011.8 1011.4 3.4
25/06:00pm 10.3 7.9 10.1 99 0.1 S 13 19 7 10 1011.7 1011.3 3.4
25/05:55pm 10.3 7.5 10.1 99 0.1 S 15 19 8 10 1011.7 1011.3 3.4
25/05:30pm 10.3 7.1 10.1 99 0.1 S 17 24 9 13 1011.4 1011.0 3.2
25/05:00pm 10.5 6.8 10.3 99 0.1 S 20 26 11 14 1011.1 1010.7 2.6
25/04:30pm 10.6 7.9 10.4 99 0.1 S 15 24 8 13 1010.7 1010.4 1.6
25/04:11pm 10.6 7.9 10.3 98 0.2 S 15 20 8 11 1010.5 1010.2 0.8
25/04:06pm 10.9 7.9 10.6 98 0.2 S 17 20 9 11 1010.5 1010.2 0.2
25/04:00pm 10.9 7.9 10.6 98 0.2 S 17 20 9 11 1010.5 1010.2 0.2
25/03:30pm 11.3 7.8 10.2 93 0.6 S 19 24 10 13 1010.1 1009.7 0.0
25/03:14pm 12.4 9.0 9.1 80 1.7 S 17 22 9 12 1009.9 1009.5 0.0
25/03:00pm 12.3 8.6 9.3 82 1.6 S 19 24 10 13 1009.8 1009.4 0.0
25/02:30pm 11.3 8.4 11.0 98 0.2 S 17 20 9 11 1009.5 1009.1 0.0
25/02:20pm 11.6 9.5 11.3 98 0.2 S 13 17 7 9 1009.4 1009.0 0.0
25/02:02pm 11.1 8.9 10.8 98 0.2 S 13 19 7 10 1009.4 1009.0 0.0
25/02:00pm 10.9 8.3 10.6 98 0.2 S 15 19 8 10 1009.4 1009.0 0.0
25/01:44pm 10.9 7.9 10.6 98 0.2 S 17 20 9 11 1009.3 1008.9 0.0
25/01:32pm 10.9 8.6 10.6 98 0.2 S 13 19 7 10 1009.4 1009.0 0.0
25/01:30pm 11.1 8.9 10.8 98 0.2 SSE 13 19 7 10 1009.3 1008.9 0.0
25/01:26pm 11.0 8.8 10.7 98 0.2 SSE 13 17 7 9 1009.3 1008.9 0.0
25/01:08pm 11.2 8.7 10.9 98 0.2 S 15 19 8 10 1009.2 1008.8 0.0
25/01:00pm 10.9 8.3 10.6 98 0.2 S 15 20 8 11 1009.1 1008.7 0.0
25/12:56pm 11.1 8.9 10.8 98 0.2 S 13 19 7 10 1009.1 1008.7 0.0
25/12:50pm 11.1 8.5 10.8 98 0.2 SSE 15 20 8 11 1009.1 1008.7 0.0
25/12:33pm 11.0 8.0 10.7 98 0.2 S 17 22 9 12 1009.3 1008.9 0.0
25/12:30pm 11.0 8.0 10.7 98 0.2 S 17 20 9 11 1009.3 1008.9 0.0
25/12:15pm 10.9 7.5 10.6 98 0.2 S 19 24 10 13 1009.4 1009.0 0.0
25/12:00pm 10.9 7.3 10.6 98 0.2 S 20 24 11 13 1009.4 1009.0 0.0
25/11:57am 11.0 7.4 10.7 98 0.2 S 20 26 11 14 1009.4 1009.0 0.0
25/11:40am 11.0 7.4 10.7 98 0.2 S 20 26 11 14 1009.4 1009.0 0.0

Other Formats:

Comma delimited format used in spreadsheet applications
http://www.bom.gov.au/fwo/IDV60801/IDV60801.94852.axf

JavaScript Object Notation format (JSON) in row-major order
http://www.bom.gov.au/fwo/IDV60801/IDV60801.94852.json